createdAt,value
2023-04-18T00:02:07.612Z,65.91
2023-04-18T00:07:17.915Z,66.02
2023-04-18T00:12:23.249Z,66.45
2023-04-18T00:17:29.342Z,67.07
2023-04-18T00:22:34.803Z,67.31
2023-04-18T00:27:40.671Z,66.80
2023-04-18T00:32:46.248Z,66.59
2023-04-18T00:37:52.418Z,67.02
2023-04-18T00:42:57.761Z,67.14
2023-04-18T00:48:03.112Z,67.14
2023-04-18T00:53:11.244Z,67.27
2023-04-18T00:58:17.106Z,67.14
2023-04-18T01:03:23.623Z,67.09
2023-04-18T01:08:29.184Z,67.91
2023-04-18T01:13:36.789Z,67.72
2023-04-18T01:18:42.104Z,67.03
2023-04-18T01:23:49.118Z,67.36
2023-04-18T01:28:54.694Z,67.53
2023-04-18T01:34:01.390Z,68.02
2023-04-18T01:39:07.278Z,67.78
2023-04-18T01:44:13.000Z,67.54
2023-04-18T01:49:18.972Z,66.84
2023-04-18T01:54:24.483Z,66.73
2023-04-18T01:59:31.206Z,67.38
2023-04-18T02:04:36.698Z,67.34
2023-04-18T02:09:42.369Z,67.01
2023-04-18T02:14:55.432Z,66.74
2023-04-18T02:20:01.236Z,66.27
2023-04-18T02:25:09.354Z,65.96
2023-04-18T02:30:14.856Z,65.32
2023-04-18T02:35:21.580Z,62.51
2023-04-18T02:40:27.101Z,61.54
2023-04-18T02:45:33.475Z,59.21
2023-04-18T02:50:39.416Z,58.57
2023-04-18T02:55:45.048Z,58.50
2023-04-18T03:00:53.309Z,56.91
2023-04-18T03:06:25.178Z,55.79
2023-04-18T03:11:31.478Z,54.08
2023-04-18T03:16:37.582Z,52.09
2023-04-18T03:21:45.282Z,51.93
2023-04-18T03:26:51.176Z,49.67
2023-04-18T03:32:02.018Z,47.30
2023-04-18T03:37:08.806Z,45.57
2023-04-18T03:42:21.906Z,43.12
2023-04-18T03:47:27.388Z,41.78
2023-04-18T03:52:38.536Z,41.08
2023-04-18T03:57:43.780Z,41.61
2023-04-18T04:02:55.348Z,41.82
2023-04-18T04:08:01.290Z,40.12
2023-04-18T04:13:05.503Z,36.97
2023-04-18T04:18:17.364Z,37.35
2023-04-18T04:23:23.409Z,36.98
2023-04-18T04:28:29.425Z,37.90
2023-04-18T04:33:41.550Z,36.21
2023-04-18T04:38:55.906Z,34.34
2023-04-18T04:44:10.545Z,32.80
2023-04-18T04:49:16.888Z,31.57
2023-04-18T04:54:21.594Z,31.62
2023-04-18T04:59:26.559Z,31.26
2023-04-18T05:04:31.591Z,29.11
2023-04-18T05:09:39.808Z,28.95
2023-04-18T05:14:50.179Z,26.99
2023-04-18T05:19:56.281Z,27.54
2023-04-18T05:25:02.913Z,26.25
2023-04-18T05:30:10.218Z,27.05
2023-04-18T05:41:05.793Z,27.35
2023-04-18T05:46:20.498Z,25.75
2023-04-18T05:51:29.259Z,25.78
2023-04-18T05:56:40.009Z,26.21
2023-04-18T06:07:34.359Z,27.93
2023-04-18T06:12:41.160Z,30.53
2023-04-18T06:17:48.786Z,32.05
2023-04-18T06:22:52.958Z,33.12
2023-04-18T06:27:57.812Z,33.36
2023-04-18T06:33:02.576Z,32.89
2023-04-18T06:38:08.536Z,30.29
2023-04-18T06:43:12.795Z,28.37
2023-04-18T06:48:17.011Z,27.55
2023-04-18T06:53:21.133Z,27.40
2023-04-18T06:58:25.209Z,28.11
2023-04-18T07:03:29.602Z,28.26
2023-04-18T07:08:35.554Z,27.72
2023-04-18T07:13:39.852Z,30.15
2023-04-18T07:18:43.977Z,28.95
2023-04-18T07:23:48.350Z,28.27
2023-04-18T07:28:52.582Z,28.35
2023-04-18T07:33:56.945Z,28.17
2023-04-18T07:39:02.357Z,31.17
2023-04-18T07:44:06.524Z,28.87
2023-04-18T07:49:10.673Z,29.66
2023-04-18T07:54:14.876Z,28.45
2023-04-18T07:59:18.964Z,28.68
2023-04-18T08:04:23.292Z,28.56
2023-04-18T08:09:27.685Z,29.39
2023-04-18T08:14:31.771Z,32.83
2023-04-18T08:19:35.922Z,33.37
2023-04-18T08:24:42.930Z,31.92
2023-04-18T08:29:52.884Z,32.88
2023-04-18T08:34:56.996Z,32.18
2023-04-18T08:40:01.179Z,33.06
2023-04-18T08:45:09.733Z,31.93
2023-04-18T08:50:13.910Z,31.47
2023-04-18T08:55:19.554Z,32.46
2023-04-18T09:00:24.524Z,31.59
2023-04-18T09:05:28.956Z,31.29
2023-04-18T09:10:34.904Z,32.01
2023-04-18T09:15:38.972Z,29.92
2023-04-18T09:20:43.146Z,31.84
2023-04-18T09:25:48.972Z,30.41
2023-04-18T09:30:53.631Z,31.65
2023-04-18T09:36:17.326Z,32.38
2023-04-18T09:41:23.036Z,30.87
2023-04-18T09:46:28.466Z,29.61
2023-04-18T09:51:33.879Z,29.49
2023-04-18T09:56:42.061Z,29.16
2023-04-18T10:01:48.841Z,30.39
2023-04-18T10:06:55.038Z,29.20
2023-04-18T10:12:00.350Z,29.85
2023-04-18T10:17:04.623Z,27.62
2023-04-18T10:22:08.726Z,29.30
2023-04-18T10:27:12.844Z,29.22
2023-04-18T10:32:22.949Z,28.31
2023-04-18T10:37:27.673Z,29.37
2023-04-18T10:42:53.449Z,29.35
2023-04-18T10:48:15.887Z,29.05
2023-04-18T10:53:19.811Z,28.88
2023-04-18T10:58:24.013Z,27.92
2023-04-18T11:03:35.689Z,28.21
2023-04-18T11:08:40.141Z,28.54
2023-04-18T11:14:00.348Z,28.58
2023-04-18T11:19:22.069Z,29.23
2023-04-18T11:24:26.400Z,28.52
2023-04-18T11:29:30.931Z,29.29
2023-04-18T11:34:36.574Z,28.77
2023-04-18T11:39:45.128Z,29.21
2023-04-18T11:44:49.878Z,28.94
2023-04-18T11:50:02.424Z,28.72
2023-04-18T11:55:21.693Z,28.83
2023-04-18T12:00:44.926Z,28.89
2023-04-18T12:05:49.578Z,27.47
2023-04-18T12:10:55.922Z,28.34
2023-04-18T12:16:03.205Z,28.75
2023-04-18T12:21:07.427Z,28.51
2023-04-18T12:26:18.864Z,28.74
2023-04-18T12:31:23.031Z,27.91
2023-04-18T12:36:29.018Z,29.00
2023-04-18T12:41:33.111Z,29.19
2023-04-18T12:46:37.349Z,29.97
2023-04-18T12:51:41.560Z,29.70
2023-04-18T12:56:46.964Z,29.63
2023-04-18T13:01:51.114Z,29.55
2023-04-18T13:06:55.500Z,31.12
2023-04-18T13:11:59.531Z,30.50
2023-04-18T13:17:03.762Z,30.89
2023-04-18T13:22:08.047Z,30.26
2023-04-18T13:27:12.449Z,30.48
2023-04-18T13:32:16.683Z,31.56
2023-04-18T13:37:20.724Z,30.42
2023-04-18T13:42:24.807Z,30.31
2023-04-18T13:47:28.952Z,30.30
2023-04-18T13:52:35.540Z,30.58
2023-04-18T13:57:45.202Z,31.18
2023-04-18T14:02:56.454Z,30.92
2023-04-18T14:08:09.460Z,30.11
2023-04-18T14:13:18.696Z,30.36
2023-04-18T14:18:26.065Z,30.27
2023-04-18T14:23:30.852Z,31.30
2023-04-18T14:28:38.381Z,31.34
2023-04-18T14:33:51.120Z,32.75
2023-04-18T14:38:57.930Z,32.96
2023-04-18T14:44:06.321Z,32.00
2023-04-18T14:49:12.528Z,32.80
2023-04-18T14:54:17.208Z,33.08
2023-04-18T14:59:29.054Z,35.42
2023-04-18T15:04:44.925Z,36.14
2023-04-18T15:09:52.344Z,36.93
2023-04-18T15:15:05.378Z,36.91
2023-04-18T15:20:13.016Z,35.65
2023-04-18T15:25:18.689Z,35.60
2023-04-18T15:30:25.032Z,36.90
2023-04-18T15:35:31.150Z,37.90
2023-04-18T15:40:36.800Z,38.47
2023-04-18T15:45:41.418Z,39.46
2023-04-18T15:50:51.476Z,38.97
2023-04-18T15:55:55.654Z,40.66
2023-04-18T16:01:01.131Z,44.21
2023-04-18T16:06:06.582Z,41.76
2023-04-18T16:11:13.897Z,41.87
2023-04-18T16:16:19.373Z,43.11
2023-04-18T16:21:25.151Z,42.24
2023-04-18T16:26:29.488Z,43.40
2023-04-18T16:31:34.620Z,44.11
2023-04-18T16:36:38.857Z,43.76
2023-04-18T16:41:45.088Z,45.84
2023-04-18T16:46:50.612Z,45.78
2023-04-18T16:51:56.971Z,46.40
2023-04-18T16:57:02.223Z,46.49
2023-04-18T17:02:07.976Z,46.90
2023-04-18T17:07:12.154Z,46.76
2023-04-18T17:12:16.523Z,47.23
2023-04-18T17:17:20.636Z,48.77
2023-04-18T17:22:24.917Z,49.26
2023-04-18T17:27:30.076Z,49.95
2023-04-18T17:32:35.745Z,50.75
2023-04-18T17:37:40.868Z,50.55
2023-04-18T17:42:45.108Z,52.77
2023-04-18T17:47:51.282Z,52.58
2023-04-18T17:52:55.441Z,52.76
2023-04-18T17:58:01.216Z,52.84
2023-04-18T18:03:05.878Z,53.21
2023-04-18T18:08:10.249Z,52.50
2023-04-18T18:13:14.590Z,53.88
2023-04-18T18:18:19.967Z,53.89
2023-04-18T18:23:25.815Z,54.67
2023-04-18T18:28:30.032Z,54.22
2023-04-18T18:33:34.090Z,56.64
2023-04-18T18:38:38.336Z,57.15
2023-04-18T18:43:43.379Z,56.53
2023-04-18T18:48:48.630Z,56.74
2023-04-18T18:53:53.622Z,57.42
2023-04-18T18:58:57.657Z,57.98
2023-04-18T19:04:03.541Z,58.34
2023-04-18T19:09:07.786Z,58.18
2023-04-18T19:14:13.129Z,58.80
2023-04-18T19:19:18.027Z,58.99
2023-04-18T19:24:23.165Z,59.61
2023-04-18T19:29:27.397Z,58.57
2023-04-18T19:34:31.516Z,58.86
2023-04-18T19:39:35.645Z,59.23
2023-04-18T19:44:41.502Z,60.31
2023-04-18T19:49:47.296Z,59.48
2023-04-18T19:54:53.626Z,58.78
2023-04-18T19:59:58.995Z,59.81
2023-04-18T20:05:05.416Z,60.45
2023-04-18T20:10:11.911Z,59.89
2023-04-18T20:15:17.516Z,60.99
2023-04-18T20:20:23.031Z,61.00
2023-04-18T20:25:28.075Z,60.04
2023-04-18T20:30:32.134Z,59.64
2023-04-18T20:35:38.442Z,60.07
2023-04-18T20:40:45.369Z,60.87
2023-04-18T20:45:55.455Z,60.71
2023-04-18T20:51:00.867Z,60.83
2023-04-18T20:56:06.958Z,60.63
2023-04-18T21:01:12.459Z,60.58
2023-04-18T21:06:19.624Z,59.33
2023-04-18T21:11:24.822Z,61.17
2023-04-18T21:16:29.117Z,60.08
2023-04-18T21:21:34.728Z,59.81
2023-04-18T21:26:39.876Z,60.88
2023-04-18T21:31:45.897Z,61.47
2023-04-18T21:36:51.285Z,61.40
2023-04-18T21:41:56.323Z,61.05
2023-04-18T21:47:01.312Z,60.77
2023-04-18T21:52:06.743Z,61.58
2023-04-18T21:57:11.730Z,60.17
2023-04-18T22:02:17.559Z,61.72
2023-04-18T22:07:25.128Z,61.31
2023-04-18T22:12:29.394Z,62.06
2023-04-18T22:17:35.649Z,62.25
2023-04-18T22:22:41.058Z,62.56
2023-04-18T22:27:45.752Z,62.43
2023-04-18T22:32:50.714Z,63.14
2023-04-18T22:37:56.928Z,61.22
2023-04-18T22:43:02.108Z,62.45
2023-04-18T22:48:12.493Z,62.76
2023-04-18T22:53:17.117Z,63.61
2023-04-18T22:58:22.418Z,62.81
2023-04-18T23:03:27.591Z,63.58
2023-04-18T23:08:32.128Z,64.40
2023-04-18T23:13:37.542Z,62.98
2023-04-18T23:18:41.675Z,63.91
2023-04-18T23:23:46.826Z,63.09
2023-04-18T23:28:52.888Z,64.17
2023-04-18T23:33:58.304Z,64.81
2023-04-18T23:39:04.714Z,64.93
2023-04-18T23:44:09.889Z,64.10
2023-04-18T23:49:15.471Z,65.43
2023-04-18T23:54:20.818Z,64.67
2023-04-18T23:59:25.918Z,64.35
